Weather observations for the past three days for
Boise Air Terminal
Metric (Imperial)
Date Time (mdt) Wind (kph) Vis. (km) Weather Sky Cond. Temperature (ºC) Relative Humidity Wind Chill (°C) Heat Index (°C) Pressure Precipitation (cm)
Air Dwpt 6 hour altimeter (cm) sea level (mb) 1 hr 3 hr 6 hr
Max. Min.
10 09:53 SE 22 16.09 Fair CLR 20 1.1 28% 76.43 1016.8
10 08:53 SE 17 16.09 Fair CLR 16.1 2.2 39% 76.43 1017.3
10 07:53 E 20 16.09 Fair CLR 13.9 1.7 44% 76.4 1016.9
10 06:53 E 11 16.09 Fair CLR 12.2 1.1 47% 76.38 1016.6
10 05:53 SE 15 16.09 Fair CLR 11.7 1.7 14.4 11.1 51% 76.38 1016.5
10 04:53 SE 13 16.09 Fair CLR 11.7 1.7 51% 76.35 1016.2
10 03:53 E 13 16.09 Fair CLR 11.7 1.7 51% 76.35 1016.1
10 02:53 E 11 16.09 Fair CLR 12.8 1.7 47% 76.35 1016.3
10 01:53 SE 7 16.09 Fair CLR 12.2 1.7 49% 76.35 1016.5
10 00:53 SE 9 16.09 Fair CLR 13.3 1.7 46% 76.38 1016.5
09 23:53 S 6 16.09 Fair CLR 13.9 1.1 23.9 13.3 42% 76.35 1016.5
09 22:53 SE 9 16.09 Fair CLR 17.8 0.6 32% 76.35 1016.2
09 21:53 N 7 16.09 Fair CLR 18.3 -0.6 28% 76.33 1016.1
09 20:53 NW 15 16.09 Fair CLR 19.4 -1.1 25% 76.3 1015.7
09 19:53 NW 19 16.09 Fair CLR 22.2 -1.7 20% 76.3 1015.7
09 18:53 NW 22 16.09 Fair CLR 23.3 -2.2 18% 76.3 1016.1
09 17:53 NW 20 16.09 Fair CLR 23.9 -2.8 24.4 18.3 17% 24 76.33 1016.1
09 16:53 N 19 16.09 Fair CLR 23.9 -1.7 18% 24 76.35 1016.3
09 15:53 W 20 G 35 16.09 Fair CLR 23.3 -1.7 19% 76.4 1017.0
09 14:53 NW 19 G 39 16.09 Fair CLR 22.8 0 22% 76.48 1017.8
09 13:53 NW 17 16.09 Fair CLR 21.1 1.1 27% 76.5 1018.3
09 12:53 NW 15 16.09 Fair CLR 20.6 0.6 26% 76.56 1018.9
09 11:53 NW 20 16.09 Fair CLR 18.9 1.7 18.9 7.2 32% 76.58 1019.3
09 10:53 W 19 16.09 Fair CLR 17.2 2.8 38% 76.58 1019.4
09 09:53 W 17 16.09 Fair CLR 15 2.2 42% 76.58 1019.3
09 08:53 NW 11 16.09 Fair CLR 13.3 2.2 47% 76.58 1019.3
09 07:53 W 13 16.09 Fair CLR 11.1 1.7 53% 76.56 1018.9
09 06:53 W 7 16.09 Fair CLR 7.2 0.6 63% 6 76.5 1018.8
09 05:53 SE 6 16.09 Fair CLR 8.9 1.1 16.1 8.9 58% 76.48 1018.3
09 04:53 Calm 16.09 Fair CLR 10 1.7 57% 76.45 1017.8
09 03:53 W 7 16.09 Fair CLR 11.1 0 47% 76.43 1017.2
09 02:53 NW 15 16.09 Fair CLR 11.7 0 45% 76.4 1017.0
09 01:53 W 13 16.09 Fair CLR 13.3 1.7 46% 76.38 1016.3
09 00:53 W 13 16.09 Fair CLR 15 2.2 42% 76.3 1015.4
08 23:53 W 11 16.09 Fair CLR 16.1 2.2 24.4 15.6 39% 76.25 1014.6
08 22:53 NW 11 16.09 Fair CLR 17.8 1.7 34% 76.2 1014.1
08 21:53 N 7 16.09 Fair CLR 19.4 1.1 30% 76.15 1013.2
08 20:53 N 7 16.09 Fair CLR 20 0 26% 76.1 1012.7
08 19:53 N 13 16.09 Fair CLR 22.8 -0.6 21% 76.07 1012.2
08 18:53 N 15 16.09 Fair CLR 23.9 -1.7 18% 24 76.07 1012.5
08 17:53 N 15 16.09 Fair CLR 23.3 -2.2 25 20.6 18% 76.1 1012.8
08 16:53 N 17 16.09 Fair CLR 23.3 -2.2 18% 76.1 1012.9
08 15:53 N 19 G 30 16.09 Fair CLR 24.4 1.1 22% 25 76.17 1013.6
08 14:53 N 15 16.09 Fair CLR 22.8 -0.6 21% 76.17 1013.9
08 13:53 Vrbl 9 G 28 16.09 Fair CLR 22.8 -2.2 19% 76.2 1014.2
08 12:53 NW 15 16.09 Fair CLR 22.8 0.6 23% 76.25 1014.5
08 11:53 W 13 16.09 Fair CLR 21.1 1.1 21.1 9.4 27% 76.28 1015.0
08 10:53 NW 7 16.09 Fair CLR 18.9 3.3 36% 76.28 1015.0
08 09:53 Vrbl 6 16.09 Fair CLR 16.7 3.3 41% 76.28 1015.2
08 08:53 Calm 16.09 Fair CLR 15 3.3 46% 76.28 1015.0
08 07:53 SE 11 16.09 Fair CLR 12.2 2.8 53% 76.23 1014.6
08 06:53 SE 13 16.09 Fair CLR 10 2.2 59% 8 76.17 1013.8
08 05:53 SE 13 16.09 Fair CLR 10 2.2 16.1 10 59% 8 76.15 1013.5
08 04:53 SE 7 16.09 Fair CLR 10.6 2.2 56% 76.15 1013.4
08 03:53 S 6 16.09 Fair CLR 11.7 2.8 55% 76.1 1012.7
08 02:53 S 7 16.09 Fair CLR 11.7 2.2 52% 76.07 1012.5
08 01:53 SE 11 16.09 Fair CLR 12.8 2.2 49% 76.07 1012.4
08 00:53 Calm 16.09 Fair CLR 15 2.2 42% 76.05 1011.9
07 23:53 Calm 16.09 Fair CLR 15.6 1.7 25 15.6 39% 76.02 1011.6
07 22:53 NW 6 16.09 Fair CLR 18.3 1.7 33% 76.02 1011.4
07 21:53 W 7 16.09 Fair CLR 20 0.6 27% 76 1011.1
07 20:53 NW 9 16.09 Fair CLR 20.6 0 25% 75.95 1010.6
07 19:53 N 17 16.09 Fair CLR 23.3 0 21% 75.92 1010.4
07 18:53 N 22 16.09 Fair CLR 24.4 1.1 22% 25 75.95 1010.6
07 17:53 N 17 G 37 16.09 Fair CLR 24.4 2.2 25.6 20 23% 25 75.97 1010.9
07 16:53 N 19 G 37 16.09 Fair CLR 25 2.8 24% 25 76 1011.2
07 15:53 W 13 G 30 16.09 Fair CLR 25 2.8 24% 25 76.05 1011.7
07 14:53 NW 22 G 30 16.09 Fair CLR 23.9 2.8 25% 25 76.1 1012.5
07 13:53 Calm 16.09 Fair CLR 22.8 1.1 24% 76.12 1012.9
07 12:53 NW 20 16.09 Fair CLR 22.2 2.8 28% 76.17 1013.6
07 11:53 NW 11 16.09 Fair CLR 21.1 3.3 21.1 10.6 31% 76.23 1014.0
07 10:53 NW 15 16.09 Fair CLR 20.6 2.8 31% 76.23 1014.1
Date Time (mdt) Wind (kph) Vis. (km) Weather Sky Cond. Air Dwpt Max. Min. Relative Humidity Wind Chill (°C) Heat Index (°C) altimeter (cm) sea level (mb) 1 hr 3 hr 6 hr
6 hour
Temperature (ºC) Pressure Precipitation (cm)